createdAt,value
2019-06-23T00:00:07.462Z,3.62
2019-06-23T00:02:36.623Z,4.03
2019-06-23T00:05:07.020Z,3.70
2019-06-23T00:07:36.142Z,3.40
2019-06-23T00:10:06.832Z,4.05
2019-06-23T00:12:35.901Z,3.60
2019-06-23T00:15:06.782Z,3.80
2019-06-23T00:17:35.792Z,3.83
2019-06-23T00:20:05.372Z,3.85
2019-06-23T00:22:34.452Z,4.12
2019-06-23T00:25:04.458Z,3.67
2019-06-23T00:27:33.537Z,3.45
2019-06-23T00:30:02.588Z,3.90
2019-06-23T00:32:31.527Z,3.72
2019-06-23T00:35:00.726Z,3.75
2019-06-23T00:37:29.726Z,3.60
2019-06-23T00:39:58.995Z,3.60
2019-06-23T00:42:28.044Z,3.70
2019-06-23T00:44:57.200Z,4.30
2019-06-23T00:47:26.356Z,4.42
2019-06-23T00:49:55.359Z,4.00
2019-06-23T00:52:24.258Z,3.55
2019-06-23T00:54:53.276Z,4.12
2019-06-23T00:57:22.446Z,3.85
2019-06-23T00:59:51.488Z,4.03
2019-06-23T01:02:22.183Z,3.80
2019-06-23T01:04:51.243Z,3.92
2019-06-23T01:07:20.486Z,3.47
2019-06-23T01:10:02.179Z,4.65
2019-06-23T01:12:20.216Z,4.55
2019-06-23T01:14:49.471Z,4.33
2019-06-23T01:17:18.277Z,4.00
2019-06-23T01:19:47.439Z,4.00
2019-06-23T01:22:16.503Z,4.17
2019-06-23T01:24:45.539Z,4.25
2019-06-23T01:27:14.619Z,4.03
2019-06-23T01:29:43.487Z,4.12
2019-06-23T01:32:12.717Z,3.95
2019-06-23T01:34:41.981Z,4.47
2019-06-23T01:37:11.043Z,4.15
2019-06-23T01:39:40.334Z,4.62
2019-06-23T01:42:09.335Z,4.00
2019-06-23T01:44:38.399Z,3.55
2019-06-23T01:47:07.503Z,3.92
2019-06-23T01:49:36.459Z,4.30
2019-06-23T01:52:05.505Z,3.87
2019-06-23T01:54:34.477Z,3.92
2019-06-23T01:57:03.535Z,4.12
2019-06-23T01:59:32.643Z,4.42
2019-06-23T02:02:01.713Z,4.25
2019-06-23T02:04:39.975Z,4.60
2019-06-23T02:07:01.469Z,4.53
2019-06-23T02:09:30.555Z,4.70
2019-06-23T02:11:59.396Z,4.50
2019-06-23T02:14:28.287Z,4.35
2019-06-23T02:16:57.260Z,4.12
2019-06-23T02:19:26.315Z,4.30
2019-06-23T02:22:10.420Z,4.40
2019-06-23T02:24:40.283Z,4.60
2019-06-23T02:27:09.363Z,5.40
2019-06-23T02:29:38.394Z,4.65
2019-06-23T02:32:07.513Z,5.12
2019-06-23T02:34:36.548Z,5.25
2019-06-23T02:37:05.383Z,5.15
2019-06-23T02:39:34.670Z,4.78
2019-06-23T02:42:03.731Z,5.15
2019-06-23T02:44:32.667Z,5.95
2019-06-23T02:47:03.157Z,5.45
2019-06-23T02:49:33.771Z,5.50
2019-06-23T02:52:04.225Z,5.45
2019-06-23T02:54:37.678Z,5.30
2019-06-23T02:57:08.233Z,5.30
2019-06-23T02:59:37.332Z,5.90
2019-06-23T03:02:06.371Z,4.90
2019-06-23T03:04:35.429Z,5.00
2019-06-23T03:07:04.715Z,5.78
2019-06-23T03:09:33.610Z,5.17
2019-06-23T03:12:02.685Z,4.97
2019-06-23T03:14:31.800Z,5.30
2019-06-23T03:17:00.961Z,5.58
2019-06-23T03:19:29.942Z,5.42
2019-06-23T03:21:58.876Z,5.28
2019-06-23T03:24:28.169Z,5.45
2019-06-23T03:26:57.199Z,6.10
2019-06-23T03:29:26.210Z,5.60
2019-06-23T03:31:55.074Z,5.20
2019-06-23T03:34:24.191Z,4.85
2019-06-23T03:36:53.344Z,4.78
2019-06-23T03:39:22.371Z,5.33
2019-06-23T03:41:51.491Z,5.67
2019-06-23T03:44:20.466Z,5.22
2019-06-23T03:46:49.386Z,4.55
2019-06-23T03:49:18.384Z,5.08
2019-06-23T03:51:47.543Z,4.87
2019-06-23T03:54:16.751Z,5.10
2019-06-23T03:56:45.548Z,4.97
2019-06-23T03:59:14.643Z,5.00
2019-06-23T04:01:43.608Z,5.17
2019-06-23T04:04:12.628Z,5.42
2019-06-23T04:06:41.678Z,5.50
2019-06-23T04:09:10.491Z,5.47
2019-06-23T04:11:39.579Z,4.80
2019-06-23T04:14:08.724Z,4.72
2019-06-23T04:16:37.729Z,5.45
2019-06-23T04:19:06.851Z,5.78
2019-06-23T04:21:35.729Z,5.35
2019-06-23T04:24:04.840Z,5.72
2019-06-23T04:26:33.934Z,4.60
2019-06-23T04:29:02.852Z,5.00
2019-06-23T04:31:31.804Z,5.00
2019-06-23T04:34:00.941Z,4.83
2019-06-23T04:36:29.845Z,5.83
2019-06-23T04:38:58.749Z,4.83
2019-06-23T04:41:28.042Z,5.15
2019-06-23T04:43:57.204Z,4.58
2019-06-23T04:46:26.250Z,5.17
2019-06-23T04:48:55.258Z,5.03
2019-06-23T04:51:24.376Z,5.12
2019-06-23T04:53:53.489Z,5.67
2019-06-23T04:56:22.517Z,5.22
2019-06-23T04:58:51.497Z,5.60
2019-06-23T05:01:20.577Z,5.72
2019-06-23T05:03:49.586Z,5.62
2019-06-23T05:06:23.540Z,5.22
2019-06-23T05:08:49.201Z,5.58
2019-06-23T05:11:18.341Z,5.55
2019-06-23T05:13:47.406Z,5.33
2019-06-23T05:16:16.379Z,5.30
2019-06-23T05:18:45.355Z,5.85
2019-06-23T05:21:14.425Z,5.08
2019-06-23T05:23:43.432Z,5.00
2019-06-23T05:26:12.504Z,5.00
2019-06-23T05:28:41.510Z,5.37
2019-06-23T05:31:10.483Z,5.85
2019-06-23T05:33:39.323Z,6.03
2019-06-23T05:36:08.276Z,4.90
2019-06-23T05:38:37.088Z,5.97
2019-06-23T05:41:06.096Z,5.40
2019-06-23T05:43:35.020Z,5.30
2019-06-23T05:46:04.033Z,5.97
2019-06-23T05:48:32.932Z,5.55
2019-06-23T05:51:02.015Z,5.33
2019-06-23T05:53:30.883Z,4.72
2019-06-23T05:55:59.937Z,5.20
2019-06-23T05:58:42.592Z,5.45
2019-06-23T06:01:02.219Z,5.25
2019-06-23T06:03:30.378Z,5.10
2019-06-23T06:05:59.395Z,5.20
2019-06-23T06:08:28.408Z,5.40
2019-06-23T06:10:57.579Z,5.28
2019-06-23T06:13:26.607Z,4.65
2019-06-23T06:15:55.527Z,4.78
2019-06-23T06:18:24.524Z,4.47
2019-06-23T06:20:53.644Z,4.10
2019-06-23T06:23:22.535Z,4.62
2019-06-23T06:25:51.415Z,4.35
2019-06-23T06:28:20.303Z,4.40
2019-06-23T06:30:49.423Z,4.62
2019-06-23T06:33:18.328Z,4.58
2019-06-23T06:35:47.287Z,4.35
2019-06-23T06:38:16.113Z,4.33
2019-06-23T06:40:45.028Z,4.05
2019-06-23T06:43:14.143Z,4.25
2019-06-23T06:45:43.175Z,4.20
2019-06-23T06:48:12.179Z,4.40
2019-06-23T06:50:41.252Z,4.00
2019-06-23T06:53:10.160Z,4.10
2019-06-23T06:55:39.194Z,3.90
2019-06-23T06:58:08.167Z,3.87
2019-06-23T07:00:37.163Z,4.17
2019-06-23T07:03:06.262Z,4.33
2019-06-23T07:05:35.263Z,3.75
2019-06-23T07:08:04.315Z,3.60
2019-06-23T07:10:33.473Z,3.60
2019-06-23T07:13:02.462Z,3.40
2019-06-23T07:15:31.582Z,4.62
2019-06-23T07:18:00.599Z,3.27
2019-06-23T07:20:29.695Z,3.72
2019-06-23T07:22:58.789Z,3.55
2019-06-23T07:25:27.827Z,3.65
2019-06-23T07:27:56.994Z,3.40
2019-06-23T07:30:32.019Z,3.70
2019-06-23T07:33:01.156Z,3.75
2019-06-23T07:35:30.243Z,3.98
2019-06-23T07:37:59.533Z,3.52
2019-06-23T07:40:28.509Z,3.80
2019-06-23T07:42:57.445Z,4.05
2019-06-23T07:45:26.376Z,3.33
2019-06-23T07:47:55.509Z,3.70
2019-06-23T07:50:24.462Z,3.80
2019-06-23T07:52:53.479Z,3.45
2019-06-23T07:55:22.693Z,3.58
2019-06-23T07:57:51.544Z,3.87
2019-06-23T08:00:20.633Z,3.98
2019-06-23T08:02:49.721Z,3.70
2019-06-23T08:05:18.625Z,3.87
2019-06-23T08:07:58.448Z,3.40
2019-06-23T08:10:18.336Z,3.45
2019-06-23T08:12:47.606Z,3.67
2019-06-23T08:15:16.634Z,4.00
2019-06-23T08:17:45.616Z,4.08
2019-06-23T08:20:14.683Z,3.83
2019-06-23T08:22:43.617Z,3.12
2019-06-23T08:25:12.719Z,3.40
2019-06-23T08:27:41.746Z,3.80
2019-06-23T08:30:10.775Z,3.27
2019-06-23T08:32:39.657Z,3.67
2019-06-23T08:35:08.887Z,3.47
2019-06-23T08:37:37.993Z,3.20
2019-06-23T08:40:07.040Z,4.20
2019-06-23T08:42:36.123Z,3.47
2019-06-23T08:45:06.721Z,3.17
2019-06-23T08:47:35.628Z,3.15
2019-06-23T08:50:06.780Z,3.60
2019-06-23T08:52:55.131Z,3.40
2019-06-23T08:55:24.035Z,3.60
2019-06-23T08:57:52.986Z,3.25
2019-06-23T09:00:21.996Z,3.30
2019-06-23T09:02:51.005Z,3.25
2019-06-23T09:05:19.995Z,3.37
2019-06-23T09:07:48.948Z,3.67
2019-06-23T09:10:18.008Z,3.40
2019-06-23T09:12:46.853Z,3.22
2019-06-23T09:15:16.034Z,2.90
2019-06-23T09:17:45.083Z,3.12
2019-06-23T09:20:13.947Z,3.22
2019-06-23T09:22:43.125Z,3.50
2019-06-23T09:25:12.260Z,3.52
2019-06-23T09:27:41.270Z,3.60
2019-06-23T09:30:11.674Z,3.33
2019-06-23T09:32:40.748Z,3.50
2019-06-23T09:35:09.713Z,3.90
2019-06-23T09:37:38.702Z,3.40
2019-06-23T09:40:07.745Z,3.55
2019-06-23T09:42:36.685Z,3.10
2019-06-23T09:45:08.835Z,3.27
2019-06-23T09:47:37.895Z,3.00
2019-06-23T09:50:08.463Z,3.50
2019-06-23T09:52:37.295Z,3.40
2019-06-23T09:55:07.757Z,3.30
2019-06-23T09:57:36.804Z,3.37
2019-06-23T10:00:07.129Z,3.47
2019-06-23T10:02:36.241Z,3.33
2019-06-23T10:05:05.792Z,3.12
2019-06-23T10:07:34.891Z,3.30
2019-06-23T10:10:04.156Z,3.02
2019-06-23T10:12:33.147Z,2.72
2019-06-23T10:15:02.172Z,3.15
2019-06-23T10:17:31.424Z,2.80
2019-06-23T10:20:00.540Z,2.65
2019-06-23T10:22:29.740Z,2.70
2019-06-23T10:24:58.599Z,2.77
2019-06-23T10:27:27.470Z,3.20
2019-06-23T10:29:56.365Z,2.65
2019-06-23T10:32:25.338Z,3.15
2019-06-23T10:34:54.417Z,2.42
2019-06-23T10:37:23.543Z,3.10
2019-06-23T10:39:52.726Z,3.00
2019-06-23T10:42:21.731Z,2.35
2019-06-23T10:44:50.714Z,2.30
2019-06-23T10:47:39.047Z,2.25
2019-06-23T10:50:08.519Z,2.20
2019-06-23T10:52:37.694Z,2.40
2019-06-23T10:55:07.815Z,2.40
2019-06-23T10:57:37.023Z,2.42
2019-06-23T11:00:07.864Z,2.27
2019-06-23T11:02:36.711Z,2.20
2019-06-23T11:05:09.253Z,2.40
2019-06-23T11:07:38.189Z,2.22
2019-06-23T11:10:07.166Z,2.45
2019-06-23T11:12:36.294Z,2.30
2019-06-23T11:15:06.853Z,3.10
2019-06-23T11:17:35.900Z,2.27
2019-06-23T11:20:06.541Z,2.12
2019-06-23T11:22:35.613Z,2.15
2019-06-23T11:25:05.751Z,2.62
2019-06-23T11:27:35.027Z,2.33
2019-06-23T11:30:04.559Z,2.33
2019-06-23T11:32:33.648Z,2.30
2019-06-23T11:35:02.743Z,2.30
2019-06-23T11:37:31.866Z,2.15
2019-06-23T11:40:00.788Z,2.25
2019-06-23T11:42:29.867Z,2.20
2019-06-23T11:44:58.856Z,2.15
2019-06-23T11:47:27.916Z,2.00
2019-06-23T11:49:56.777Z,2.05
2019-06-23T11:52:25.834Z,2.10
2019-06-23T11:54:54.852Z,1.75
2019-06-23T11:57:23.846Z,1.82
2019-06-23T11:59:52.862Z,2.40
2019-06-23T12:02:21.742Z,2.00
2019-06-23T12:04:52.250Z,2.47
2019-06-23T12:07:21.331Z,2.05
2019-06-23T12:09:50.444Z,2.10
2019-06-23T12:12:19.483Z,2.00
2019-06-23T12:15:07.944Z,2.50
2019-06-23T12:17:37.060Z,2.30
2019-06-23T12:20:05.972Z,2.17
2019-06-23T12:22:35.072Z,2.00
2019-06-23T12:25:05.171Z,1.70
2019-06-23T12:27:34.112Z,1.80
2019-06-23T12:30:03.264Z,1.82
2019-06-23T12:32:32.406Z,2.00
2019-06-23T12:35:01.495Z,1.72
2019-06-23T12:37:30.643Z,1.90
2019-06-23T12:40:02.416Z,1.87
2019-06-23T12:42:31.404Z,1.77
2019-06-23T12:45:00.295Z,2.12
2019-06-23T12:47:29.139Z,1.77
2019-06-23T12:49:58.226Z,2.08
2019-06-23T12:52:27.310Z,2.10
2019-06-23T12:54:56.361Z,1.72
2019-06-23T12:57:25.516Z,1.90
2019-06-23T12:59:54.428Z,2.00
2019-06-23T13:02:23.260Z,1.92
2019-06-23T13:04:52.367Z,2.00
2019-06-23T13:07:21.447Z,1.57
2019-06-23T13:09:50.438Z,1.80
2019-06-23T13:12:19.459Z,1.70
2019-06-23T13:14:48.367Z,1.60
2019-06-23T13:17:17.439Z,1.85
2019-06-23T13:19:46.590Z,1.70
2019-06-23T13:22:15.870Z,1.85
2019-06-23T13:24:45.858Z,1.75
2019-06-23T13:27:15.063Z,1.47
2019-06-23T13:29:44.064Z,1.90
2019-06-23T13:32:13.152Z,1.85
2019-06-23T13:34:41.956Z,2.08
2019-06-23T13:37:10.785Z,1.87
2019-06-23T13:39:39.716Z,1.80
2019-06-23T13:42:08.728Z,1.55
2019-06-23T13:44:37.728Z,1.80
2019-06-23T13:47:06.833Z,1.98
2019-06-23T13:49:35.727Z,1.87
2019-06-23T13:52:04.588Z,2.33
2019-06-23T13:54:33.587Z,1.82
2019-06-23T13:57:02.745Z,1.82
2019-06-23T13:59:31.882Z,1.80
2019-06-23T14:02:00.939Z,2.52
2019-06-23T14:04:30.020Z,1.87
2019-06-23T14:06:59.079Z,2.00
2019-06-23T14:09:28.082Z,2.05
2019-06-23T14:11:57.048Z,2.05
2019-06-23T14:14:26.003Z,1.70
2019-06-23T14:16:54.964Z,2.08
2019-06-23T14:19:23.982Z,1.70
2019-06-23T14:21:53.198Z,1.72
2019-06-23T14:24:22.063Z,2.08
2019-06-23T14:26:51.295Z,1.77
2019-06-23T14:29:20.429Z,2.12
2019-06-23T14:31:49.428Z,1.72
2019-06-23T14:34:18.346Z,1.85
2019-06-23T14:36:47.562Z,1.75
2019-06-23T14:39:19.565Z,1.90
2019-06-23T14:41:48.562Z,1.80
2019-06-23T14:44:17.601Z,2.05
2019-06-23T14:46:46.627Z,1.95
2019-06-23T14:49:15.688Z,1.85
2019-06-23T14:51:44.555Z,2.08
2019-06-23T14:54:13.546Z,2.00
2019-06-23T14:56:42.509Z,2.00
2019-06-23T14:59:11.498Z,2.05
2019-06-23T15:01:40.379Z,2.20
2019-06-23T15:04:09.258Z,2.40
2019-06-23T15:06:38.278Z,2.00
2019-06-23T15:09:07.291Z,2.27
2019-06-23T15:11:44.025Z,1.80
2019-06-23T15:14:06.982Z,1.77
2019-06-23T15:16:35.990Z,1.80
2019-06-23T15:19:05.139Z,2.00
2019-06-23T15:21:34.236Z,1.95
2019-06-23T15:24:03.079Z,1.82
2019-06-23T15:26:32.177Z,2.25
2019-06-23T15:29:01.270Z,1.80
2019-06-23T15:31:30.623Z,2.20
2019-06-23T15:33:59.587Z,1.87
2019-06-23T15:36:28.500Z,1.80
2019-06-23T15:38:57.511Z,2.05
2019-06-23T15:41:26.455Z,2.08
2019-06-23T15:43:55.407Z,1.70
2019-06-23T15:46:26.537Z,2.15
2019-06-23T15:48:55.105Z,1.90
2019-06-23T15:51:24.336Z,1.70
2019-06-23T15:53:53.361Z,2.00
2019-06-23T15:56:22.332Z,1.90
2019-06-23T15:58:51.215Z,2.00
2019-06-23T16:01:20.379Z,1.87
2019-06-23T16:03:49.359Z,1.75
2019-06-23T16:06:18.377Z,1.80
2019-06-23T16:08:47.435Z,2.25
2019-06-23T16:11:16.383Z,1.95
2019-06-23T16:13:45.204Z,1.87
2019-06-23T16:16:14.205Z,2.17
2019-06-23T16:18:43.104Z,2.17
2019-06-23T16:21:12.118Z,2.15
2019-06-23T16:23:41.147Z,2.10
2019-06-23T16:26:10.213Z,2.00
2019-06-23T16:28:39.046Z,2.35
2019-06-23T16:31:07.952Z,2.20
2019-06-23T16:33:37.087Z,2.40
2019-06-23T16:36:05.962Z,2.60
2019-06-23T16:38:35.067Z,2.10
2019-06-23T16:41:03.848Z,2.05
2019-06-23T16:43:32.847Z,1.92
2019-06-23T16:46:01.801Z,2.02
2019-06-23T16:48:31.048Z,2.02
2019-06-23T16:50:59.975Z,1.82
2019-06-23T16:53:29.192Z,2.15
2019-06-23T16:55:58.312Z,2.02
2019-06-23T16:58:27.408Z,2.20
2019-06-23T17:00:58.128Z,2.30
2019-06-23T17:03:26.995Z,2.20
2019-06-23T17:05:56.006Z,2.10
2019-06-23T17:08:24.999Z,1.80
2019-06-23T17:10:54.023Z,2.05
2019-06-23T17:13:23.133Z,2.00
2019-06-23T17:15:52.275Z,1.85
2019-06-23T17:18:21.256Z,2.70
2019-06-23T17:20:50.323Z,1.92
2019-06-23T17:23:19.364Z,1.72
2019-06-23T17:25:48.312Z,2.05
2019-06-23T17:28:17.423Z,2.10
2019-06-23T17:30:46.350Z,2.22
2019-06-23T17:33:15.627Z,2.20
2019-06-23T17:35:44.480Z,1.92
2019-06-23T17:38:13.604Z,1.92
2019-06-23T17:40:42.635Z,1.87
2019-06-23T17:43:14.517Z,2.00
2019-06-23T17:45:42.269Z,1.90
2019-06-23T17:48:11.101Z,1.67
2019-06-23T17:50:40.171Z,2.40
2019-06-23T17:53:09.075Z,2.05
2019-06-23T17:55:38.063Z,1.77
2019-06-23T17:58:07.106Z,1.92
2019-06-23T18:00:36.307Z,1.87
2019-06-23T18:03:05.790Z,2.10
2019-06-23T18:05:34.809Z,2.08
2019-06-23T18:08:03.744Z,2.15
2019-06-23T18:10:32.631Z,2.05
2019-06-23T18:13:01.755Z,1.52
2019-06-23T18:15:30.719Z,2.05
2019-06-23T18:17:59.964Z,2.00
2019-06-23T18:20:28.899Z,1.90
2019-06-23T18:22:58.089Z,1.95
2019-06-23T18:25:27.227Z,2.00
2019-06-23T18:27:56.398Z,1.90
2019-06-23T18:30:25.330Z,1.77
2019-06-23T18:32:54.303Z,1.80
2019-06-23T18:35:23.239Z,1.98
2019-06-23T18:37:52.346Z,1.65
2019-06-23T18:40:21.450Z,2.30
2019-06-23T18:42:50.529Z,1.80
2019-06-23T18:45:19.426Z,1.92
2019-06-23T18:47:48.367Z,2.08
2019-06-23T18:50:17.263Z,1.98
2019-06-23T18:52:46.199Z,2.30
2019-06-23T18:55:15.122Z,2.20
2019-06-23T18:57:44.147Z,2.72
2019-06-23T19:00:12.991Z,2.40
2019-06-23T19:02:41.836Z,2.80
2019-06-23T19:05:10.876Z,2.80
2019-06-23T19:07:39.857Z,2.20
2019-06-23T19:10:08.954Z,2.10
2019-06-23T19:12:37.855Z,2.10
2019-06-23T19:15:07.864Z,2.10
2019-06-23T19:17:36.887Z,1.87
2019-06-23T19:20:08.770Z,1.90
2019-06-23T19:22:37.835Z,2.42
2019-06-23T19:25:06.836Z,1.95
2019-06-23T19:27:35.939Z,2.02
2019-06-23T19:30:07.617Z,1.87
2019-06-23T19:32:36.603Z,1.92
2019-06-23T19:35:08.567Z,2.10
2019-06-23T19:37:37.985Z,1.98
2019-06-23T19:40:07.525Z,3.12
2019-06-23T19:42:36.461Z,2.00
2019-06-23T19:45:10.210Z,1.98
2019-06-23T19:50:08.234Z,1.82
2019-06-23T19:52:37.295Z,1.98
2019-06-23T19:55:07.239Z,1.95
2019-06-23T19:57:36.097Z,2.15
2019-06-23T20:00:06.835Z,2.08
2019-06-23T20:02:35.995Z,1.90
2019-06-23T20:05:08.568Z,2.30
2019-06-23T20:07:37.538Z,1.90
2019-06-23T20:10:09.287Z,2.08
2019-06-23T20:12:38.466Z,1.87
2019-06-23T20:15:07.379Z,2.15
2019-06-23T20:17:36.412Z,1.72
2019-06-23T20:20:06.410Z,2.12
2019-06-23T20:22:35.340Z,2.52
2019-06-23T20:25:05.304Z,2.10
2019-06-23T20:27:34.559Z,2.08
2019-06-23T20:30:04.555Z,2.10
2019-06-23T20:32:33.750Z,2.55
2019-06-23T20:35:02.935Z,2.02
2019-06-23T20:37:31.903Z,2.20
2019-06-23T20:40:01.003Z,2.47
2019-06-23T20:42:29.851Z,4.03
2019-06-23T20:44:59.008Z,2.55
2019-06-23T20:47:27.971Z,2.10
2019-06-23T20:49:57.032Z,2.02
2019-06-23T20:52:25.807Z,2.25
2019-06-23T20:54:54.754Z,1.98
2019-06-23T20:57:23.734Z,2.27
2019-06-23T20:59:52.811Z,2.40
2019-06-23T21:02:21.684Z,2.33
2019-06-23T21:04:50.548Z,2.50
2019-06-23T21:07:19.521Z,2.17
2019-06-23T21:09:48.721Z,2.05
2019-06-23T21:12:17.655Z,1.82
2019-06-23T21:14:57.682Z,2.17
2019-06-23T21:17:17.307Z,2.00
2019-06-23T21:19:46.381Z,1.72
2019-06-23T21:22:15.322Z,2.37
2019-06-23T21:24:44.368Z,1.90
2019-06-23T21:27:13.579Z,1.80
2019-06-23T21:29:42.380Z,1.80
2019-06-23T21:32:11.395Z,2.60
2019-06-23T21:34:40.487Z,2.12
2019-06-23T21:37:09.482Z,2.12
2019-06-23T21:39:38.513Z,2.10
2019-06-23T21:42:07.463Z,1.77
2019-06-23T21:44:36.437Z,1.82
2019-06-23T21:47:05.462Z,2.00
2019-06-23T21:49:34.653Z,2.02
2019-06-23T21:52:03.711Z,2.30
2019-06-23T21:54:32.707Z,1.90
2019-06-23T21:57:01.667Z,2.47
2019-06-23T21:59:30.775Z,2.05
2019-06-23T22:01:59.705Z,2.37
2019-06-23T22:04:28.755Z,2.42
2019-06-23T22:06:57.605Z,2.08
2019-06-23T22:09:26.595Z,2.33
2019-06-23T22:11:55.540Z,2.08
2019-06-23T22:14:24.515Z,2.20
2019-06-23T22:16:53.601Z,2.12
2019-06-23T22:19:22.677Z,1.92
2019-06-23T22:21:51.727Z,1.60
2019-06-23T22:24:20.690Z,1.85
2019-06-23T22:26:49.647Z,2.08
2019-06-23T22:29:18.876Z,1.80
2019-06-23T22:31:47.828Z,2.15
2019-06-23T22:34:16.871Z,1.65
2019-06-23T22:36:45.769Z,2.55
2019-06-23T22:39:14.949Z,1.95
2019-06-23T22:41:44.084Z,2.05
2019-06-23T22:44:13.015Z,2.08
2019-06-23T22:46:41.912Z,2.20
2019-06-23T22:49:10.837Z,2.45
2019-06-23T22:51:39.935Z,2.02
2019-06-23T22:54:08.875Z,2.10
2019-06-23T22:56:38.019Z,1.90
2019-06-23T22:59:07.127Z,2.30
2019-06-23T23:01:36.084Z,2.17
2019-06-23T23:04:04.930Z,2.20
2019-06-23T23:06:33.803Z,2.12
2019-06-23T23:09:02.741Z,2.70
2019-06-23T23:11:31.578Z,7.62
2019-06-23T23:14:00.762Z,3.10
2019-06-23T23:16:29.974Z,3.37
2019-06-23T23:18:59.322Z,2.20
2019-06-23T23:21:28.304Z,2.40
2019-06-23T23:23:57.314Z,1.90
2019-06-23T23:26:26.324Z,2.10
2019-06-23T23:28:55.124Z,2.22
2019-06-23T23:31:24.039Z,2.08
2019-06-23T23:33:53.288Z,2.00
2019-06-23T23:36:22.431Z,2.00
2019-06-23T23:38:51.383Z,2.10
2019-06-23T23:41:20.408Z,2.10
2019-06-23T23:43:49.347Z,2.15
2019-06-23T23:46:19.999Z,2.12
2019-06-23T23:48:48.810Z,2.40
2019-06-23T23:51:17.967Z,2.30
2019-06-23T23:53:47.087Z,2.33
2019-06-23T23:56:16.006Z,2.12
2019-06-23T23:58:44.983Z,2.10
